Time;durP1;ratioP1;P1;durP2;ratioP2;P2;SDS_P1;SDS_P2;PMS_P1;PMS_P2;Temp;Humidity;BMP_temperature;BMP_pressure;BME280_temperature;BME280_humidity;BME280_pressure;Samples;Min_cycle;Max_cycle;Signal;HPM_P1;HPM_P2
2022/05/19 00:53:56;;;;;;;;;;;;;;;21.08;45.55;100222.13;1086379;39;21474;-80
2022/05/19 00:55:03;;;;;;;;;;;;;;;21.04;45.64;100228.00;1088145;54;19969;-80
2022/05/19 00:56:12;;;;;;;;;;;;;;;20.97;45.65;100229.03;1088207;54;20066;-80
2022/05/19 00:57:15;;;;;;;;;;;;;;;20.90;46.05;100226.31;1088055;54;19946;-80
2022/05/19 00:58:22;;;;;;;;;;;;;;;20.84;46.44;100221.72;1088198;54;19982;-79
2022/05/19 00:59:29;;;;;;;;;;;;;;;20.85;46.90;100218.81;1088150;54;19957;-80
2022/05/19 01:00:30;;;;;;;;;;;;;;;20.82;46.92;100223.81;1088162;54;19942;-80
2022/05/19 01:01:35;;;;;;;;;;;;;;;20.84;46.75;100227.16;1088132;54;19946;-79
2022/05/19 01:02:38;;;;;;;;;;;;;;;20.87;46.31;100229.47;1088145;54;19949;-79
2022/05/19 01:03:45;;;;;;;;;;;;;;;20.83;46.64;100218.16;1088039;54;19979;-79
2022/05/19 01:04:50;;;;;;;;;;;;;;;20.86;46.47;100219.66;1088117;54;19943;-79
2022/05/19 01:05:56;;;;;;;;;;;;;;;20.86;46.62;100219.66;1088180;54;19982;-79
2022/05/19 01:06:59;;;;;;;;;;;;;;;20.82;46.53;100230.09;1088158;54;19943;-80
2022/05/19 01:08:08;;;;;;;;;;;;;;;20.83;46.74;100220.06;1087911;54;19938;-80
2022/05/19 01:09:15;;;;;;;;;;;;;;;20.81;46.69;100224.84;1087876;54;20558;-81
2022/05/19 01:10:19;;;;;;;;;;;;;;;20.80;46.67;100224.03;1088146;54;19957;-80
2022/05/19 01:11:23;;;;;;;;;;;;;;;20.77;46.57;100226.34;1088187;54;19970;-79
2022/05/19 01:12:26;;;;;;;;;;;;;;;20.76;47.11;100230.09;1087931;54;19950;-79
2022/05/19 01:13:31;;;;;;;;;;;;;;;20.70;47.46;100227.13;1088189;54;20449;-80
2022/05/19 01:14:35;;;;;;;;;;;;;;;20.63;47.03;100226.28;1087835;54;19942;-79
2022/05/19 01:15:39;;;;;;;;;;;;;;;20.58;47.24;100217.94;1088147;54;19943;-80
2022/05/19 01:16:43;;;;;;;;;;;;;;;20.48;47.33;100217.50;1089700;39;20479;-81
2022/05/19 01:17:44;;;;;;;;;;;;;;;20.44;47.19;100219.78;1088233;54;19943;-79
2022/05/19 01:18:48;;;;;;;;;;;;;;;20.46;47.21;100220.38;1088212;54;19950;-81
2022/05/19 01:19:53;;;;;;;;;;;;;;;20.45;46.92;100226.03;1087989;54;19947;-82
2022/05/19 01:20:58;;;;;;;;;;;;;;;20.44;47.05;100214.34;1088093;54;20742;-82
2022/05/19 01:22:04;;;;;;;;;;;;;;;20.44;46.93;100218.94;1087712;54;19943;-81
2022/05/19 01:23:12;;;;;;;;;;;;;;;20.42;47.18;100214.53;1087684;54;19950;-81
2022/05/19 01:24:16;;;;;;;;;;;;;;;20.40;46.89;100219.31;1087803;54;19957;-80
2022/05/19 01:25:28;;;;;;;;;;;;;;;20.41;46.87;100221.00;1087656;54;19947;-80
2022/05/19 01:26:39;;;;;;;;;;;;;;;20.43;46.87;100220.81;1087774;54;19958;-81
2022/05/19 01:27:42;;;;;;;;;;;;;;;20.35;47.13;100224.56;1087806;54;19950;-80
2022/05/19 01:28:44;;;;;;;;;;;;;;;20.31;46.95;100223.28;1087855;54;19942;-81
2022/05/19 01:29:48;;;;;;;;;;;;;;;20.29;46.98;100224.53;1088014;54;19946;-82
2022/05/19 01:30:49;;;;;;;;;;;;;;;20.29;47.35;100219.09;1088205;54;19946;-80
2022/05/19 01:31:53;;;;;;;;;;;;;;;20.21;47.26;100217.44;1089137;39;20387;-80
2022/05/19 01:32:55;;;;;;;;;;;;;;;20.15;47.46;100218.22;1088230;54;19927;-80
2022/05/19 01:33:58;;;;;;;;;;;;;;;20.12;47.30;100219.47;1088195;54;19951;-81
2022/05/19 01:35:00;;;;;;;;;;;;;;;20.08;47.74;100210.06;1091919;46;19965;-83
2022/05/19 01:36:03;;;;;;;;;;;;;;;20.04;47.71;100212.34;1088284;54;19930;-81
2022/05/19 01:37:04;;;;;;;;;;;;;;;20.02;47.46;100214.44;1088285;54;19927;-81
2022/05/19 01:38:10;;;;;;;;;;;;;;;20.01;47.51;100206.50;1088230;54;19957;-80
2022/05/19 01:39:13;;;;;;;;;;;;;;;19.98;47.52;100213.16;1088284;54;19943;-83
2022/05/19 01:40:24;;;;;;;;;;;;;;;19.94;47.75;100207.31;1088220;54;19943;-81
2022/05/19 01:41:30;;;;;;;;;;;;;;;19.89;48.06;100206.25;1088217;54;19926;-81
2022/05/19 01:42:46;;;;;;;;;;;;;;;19.83;48.25;100204.31;1088249;54;19946;-80
2022/05/19 01:43:56;;;;;;;;;;;;;;;19.80;48.14;100203.66;1088273;54;19927;-81
2022/05/19 01:45:02;;;;;;;;;;;;;;;19.84;48.13;100208.69;1087802;54;19935;-80
2022/05/19 01:46:12;;;;;;;;;;;;;;;19.85;48.11;100202.22;1088191;39;20561;-81
2022/05/19 01:47:18;;;;;;;;;;;;;;;19.77;48.38;100206.78;1088244;54;19943;-81
2022/05/19 01:48:21;;;;;;;;;;;;;;;19.79;48.25;100209.28;1088190;54;19926;-80
2022/05/19 01:49:30;;;;;;;;;;;;;;;19.77;48.38;100204.06;1088209;54;19965;-82
2022/05/19 01:50:36;;;;;;;;;;;;;;;19.75;47.90;100199.88;1088089;54;19958;-83
2022/05/19 01:51:42;;;;;;;;;;;;;;;19.74;48.32;100207.16;1087992;54;19933;-81
2022/05/19 01:52:46;;;;;;;;;;;;;;;19.74;48.13;100207.16;1088020;54;19934;-81
2022/05/19 01:53:52;;;;;;;;;;;;;;;19.75;47.89;100213.44;1087935;54;19982;-80
2022/05/19 01:54:59;;;;;;;;;;;;;;;19.74;48.14;100207.16;1087342;54;19935;-82
2022/05/19 01:56:07;;;;;;;;;;;;;;;19.76;48.30;100209.69;1088263;54;19963;-84
2022/05/19 01:57:11;;;;;;;;;;;;;;;19.78;48.11;100208.44;1088221;54;19942;-81
2022/05/19 01:58:21;;;;;;;;;;;;;;;19.73;48.07;100205.53;1088608;39;20530;-82
2022/05/19 01:59:27;;;;;;;;;;;;;;;19.75;48.05;100208.84;1088222;54;19942;-82
2022/05/19 02:00:29;;;;;;;;;;;;;;;19.76;48.31;100209.69;1088147;54;19942;-80
2022/05/19 02:01:33;;;;;;;;;;;;;;;19.77;47.93;100201.34;1087955;54;20023;-84
2022/05/19 02:02:37;;;;;;;;;;;;;;;19.68;48.40;100199.84;1087775;54;19950;-81
2022/05/19 02:03:44;;;;;;;;;;;;;;;19.62;48.24;100198.78;1091214;39;20535;-82
2022/05/19 02:04:49;;;;;;;;;;;;;;;19.60;48.50;100200.03;1088211;54;19942;-82
2022/05/19 02:05:57;;;;;;;;;;;;;;;19.60;48.59;100200.84;1088499;54;19954;-82
2022/05/19 02:07:01;;;;;;;;;;;;;;;19.62;48.28;100197.94;1089509;46;19934;-83
2022/05/19 02:08:07;;;;;;;;;;;;;;;19.67;48.10;100200.06;1088567;54;19990;-80
2022/05/19 02:09:10;;;;;;;;;;;;;;;19.68;48.04;100194.44;1088408;54;19935;-80
2022/05/19 02:10:16;;;;;;;;;;;;;;;19.68;48.44;100199.84;1088413;54;19943;-81
2022/05/19 02:11:20;;;;;;;;;;;;;;;19.67;48.43;100195.47;1088455;54;20599;-80
2022/05/19 02:12:25;;;;;;;;;;;;;;;19.66;48.30;100193.78;1088498;54;19943;-79
2022/05/19 02:13:30;;;;;;;;;;;;;;;19.69;48.51;100196.09;1088477;54;19942;-81
2022/05/19 02:14:36;;;;;;;;;;;;;;;19.69;48.42;100192.56;1088466;54;20465;-83
2022/05/19 02:15:39;;;;;;;;;;;;;;;19.66;48.54;100199.22;1088545;54;19949;-81
2022/05/19 02:16:43;;;;;;;;;;;;;;;19.64;48.67;100202.13;1088512;54;19947;-82
2022/05/19 02:17:45;;;;;;;;;;;;;;;19.61;48.56;100199.81;1088552;54;19938;-82
2022/05/19 02:18:49;;;;;;;;;;;;;;;19.61;48.50;100207.94;1089260;46;19975;-82
2022/05/19 02:19:52;;;;;;;;;;;;;;;19.59;48.41;100201.06;1088264;54;19942;-82
2022/05/19 02:20:56;;;;;;;;;;;;;;;19.59;48.74;100214.63;1088122;54;20535;-82
2022/05/19 02:21:57;;;;;;;;;;;;;;;19.56;48.55;100207.72;1088555;54;19939;-82
2022/05/19 02:23:02;;;;;;;;;;;;;;;19.57;48.48;100205.84;1088488;54;20625;-82
2022/05/19 02:24:04;;;;;;;;;;;;;;;19.50;49.09;100203.13;1088572;54;19942;-83
2022/05/19 02:25:12;;;;;;;;;;;;;;;19.51;48.64;100198.50;1088470;54;19943;-81
2022/05/19 02:26:14;;;;;;;;;;;;;;;19.48;49.10;100203.28;1088391;54;19982;-81
2022/05/19 02:27:25;;;;;;;;;;;;;;;19.51;48.83;100201.22;1088014;54;19953;-79
2022/05/19 02:28:30;;;;;;;;;;;;;;;19.46;48.91;100199.13;1088320;54;19943;-81
2022/05/19 02:29:34;;;;;;;;;;;;;;;19.50;48.92;100192.28;1088450;54;19938;-81
2022/05/19 02:30:37;;;;;;;;;;;;;;;19.47;48.75;100200.78;1088450;54;19962;-82
2022/05/19 02:31:43;;;;;;;;;;;;;;;19.45;49.10;100198.28;1088438;54;19949;-81
2022/05/19 02:32:44;;;;;;;;;;;;;;;19.41;48.85;100202.41;1088469;54;19950;-83
2022/05/19 02:33:48;;;;;;;;;;;;;;;19.40;48.91;100203.47;1088566;54;19943;-80
2022/05/19 02:34:49;;;;;;;;;;;;;;;19.36;48.92;100204.06;1088384;54;19950;-82
2022/05/19 02:35:53;;;;;;;;;;;;;;;19.31;49.00;100196.50;1088014;54;20789;-83
2022/05/19 02:36:54;;;;;;;;;;;;;;;19.30;49.09;100200.25;1088096;54;19935;-79
2022/05/19 02:37:59;;;;;;;;;;;;;;;19.28;49.27;100207.75;1088013;54;19990;-80
2022/05/19 02:39:01;;;;;;;;;;;;;;;19.21;49.33;100196.03;1088075;54;19943;-79
2022/05/19 02:40:05;;;;;;;;;;;;;;;19.20;49.07;100199.78;1088087;54;19990;-79
2022/05/19 02:41:06;;;;;;;;;;;;;;;19.24;49.08;100206.47;1087996;54;19943;-80
2022/05/19 02:42:10;;;;;;;;;;;;;;;19.22;49.16;100203.13;1088031;54;19942;-84
2022/05/19 02:43:15;;;;;;;;;;;;;;;19.25;49.20;100203.56;1088060;54;19942;-82
2022/05/19 02:44:18;;;;;;;;;;;;;;;19.28;48.85;100207.75;1088122;46;20579;-81
2022/05/19 02:45:23;;;;;;;;;;;;;;;19.28;48.79;100213.16;1088360;54;19939;-81
2022/05/19 02:46:25;;;;;;;;;;;;;;;19.30;48.72;100205.69;1089287;46;19933;-81
2022/05/19 02:47:28;;;;;;;;;;;;;;;19.29;48.85;100196.72;1092981;39;20634;-80
2022/05/19 02:48:31;;;;;;;;;;;;;;;19.28;49.00;100203.19;1088578;54;19949;-82
2022/05/19 02:49:35;;;;;;;;;;;;;;;19.24;49.16;100196.47;1088599;54;19942;-80
2022/05/19 02:50:36;;;;;;;;;;;;;;;19.21;49.13;100206.88;1090672;46;19962;-84
2022/05/19 02:51:40;;;;;;;;;;;;;;;19.24;48.85;100199.19;1088511;54;19934;-82
2022/05/19 02:52:44;;;;;;;;;;;;;;;19.19;48.90;100201.66;1088834;46;19969;-84
2022/05/19 02:53:45;;;;;;;;;;;;;;;19.10;49.36;100198.25;1088567;54;19927;-86
2022/05/19 02:54:49;;;;;;;;;;;;;;;19.05;49.70;100197.16;1094126;39;20525;-83
2022/05/19 02:55:52;;;;;;;;;;;;;;;19.04;49.54;100192.78;1087690;54;19949;-82
2022/05/19 02:56:53;;;;;;;;;;;;;;;18.99;49.39;100191.50;1088608;54;19943;-82
2022/05/19 02:57:57;;;;;;;;;;;;;;;18.95;49.69;100189.38;1088534;54;19926;-80
2022/05/19 02:59:01;;;;;;;;;;;;;;;18.89;49.82;100192.88;1095144;39;20604;-83
2022/05/19 03:00:06;;;;;;;;;;;;;;;18.82;49.83;100195.50;1088415;54;19943;-82
2022/05/19 03:01:10;;;;;;;;;;;;;;;18.79;50.21;100188.63;1088070;54;20889;-82
2022/05/19 03:02:14;;;;;;;;;;;;;;;18.81;50.02;100197.38;1088956;39;20546;-82
2022/05/19 03:03:15;;;;;;;;;;;;;;;18.81;50.12;100197.38;1088519;54;19930;-82
2022/05/19 03:04:19;;;;;;;;;;;;;;;18.79;50.19;100194.03;1088501;54;19998;-82
2022/05/19 03:05:22;;;;;;;;;;;;;;;18.81;49.92;100197.38;1088552;54;19967;-80
2022/05/19 03:06:26;;;;;;;;;;;;;;;18.85;49.76;100195.94;1088429;54;19994;-82
2022/05/19 03:07:27;;;;;;;;;;;;;;;18.85;49.64;100198.66;1088527;54;19942;-83
2022/05/19 03:08:30;;;;;;;;;;;;;;;18.83;49.83;100211.56;1088176;54;19949;-87
2022/05/19 03:09:32;;;;;;;;;;;;;;;18.90;49.64;100206.19;1088561;46;20535;-83
2022/05/19 03:10:36;;;;;;;;;;;;;;;18.91;49.56;100212.44;1088458;54;19927;-81
2022/05/19 03:11:37;;;;;;;;;;;;;;;18.88;49.62;100208.25;1088504;54;19927;-82
2022/05/19 03:12:41;;;;;;;;;;;;;;;18.88;49.85;100207.44;1091174;31;20653;-80
2022/05/19 03:13:42;;;;;;;;;;;;;;;18.81;49.92;100221.72;1088593;54;19942;-84
2022/05/19 03:14:46;;;;;;;;;;;;;;;18.74;49.98;100211.91;1088532;54;19926;-81
2022/05/19 03:15:50;;;;;;;;;;;;;;;18.72;50.39;100214.78;1090795;46;19943;-82
2022/05/19 03:16:54;;;;;;;;;;;;;;;18.76;50.14;100213.38;1088219;54;19943;-82
2022/05/19 03:17:56;;;;;;;;;;;;;;;18.78;49.86;100215.88;1088160;54;19969;-81
2022/05/19 03:19:00;;;;;;;;;;;;;;;18.82;49.53;100226.13;1088504;54;19942;-82
2022/05/19 03:20:01;;;;;;;;;;;;;;;18.84;49.71;100221.34;1088519;54;20561;-82
2022/05/19 03:21:05;;;;;;;;;;;;;;;18.84;49.93;100223.25;1088433;54;19949;-81
2022/05/19 03:22:06;;;;;;;;;;;;;;;18.88;49.26;100215.56;1088515;54;19923;-82
2022/05/19 03:23:10;;;;;;;;;;;;;;;18.92;49.52;100219.53;1088439;54;19982;-81
2022/05/19 03:24:11;;;;;;;;;;;;;;;18.94;49.26;100221.03;1088482;54;19967;-81
2022/05/19 03:25:15;;;;;;;;;;;;;;;18.98;49.08;100218.81;1088855;39;20522;-82
2022/05/19 03:26:16;;;;;;;;;;;;;;;19.00;48.94;100222.97;1088458;54;19934;-82
2022/05/19 03:27:20;;;;;;;;;;;;;;;19.01;49.21;100223.81;1093896;39;20575;-84
2022/05/19 03:28:21;;;;;;;;;;;;;;;19.03;49.25;100219.03;1088542;54;19942;-84
2022/05/19 03:29:25;;;;;;;;;;;;;;;18.96;49.20;100218.97;1088494;54;19942;-83
2022/05/19 03:30:27;;;;;;;;;;;;;;;18.92;49.71;100216.81;1088509;54;19934;-84
2022/05/19 03:31:33;;;;;;;;;;;;;;;18.91;49.55;100216.00;1088415;54;19950;-83
2022/05/19 03:32:34;;;;;;;;;;;;;;;18.90;49.67;100214.31;1088454;54;19934;-84
2022/05/19 03:33:38;;;;;;;;;;;;;;;18.88;49.54;100213.69;1091539;46;19943;-83
2022/05/19 03:34:39;;;;;;;;;;;;;;;18.87;49.45;100212.00;1088078;54;19950;-82
2022/05/19 03:35:43;;;;;;;;;;;;;;;18.84;49.56;100213.22;1087986;54;19934;-82
2022/05/19 03:36:48;;;;;;;;;;;;;;;18.75;49.97;100210.88;1088088;54;19934;-84
2022/05/19 03:37:49;;;;;;;;;;;;;;;18.77;49.96;100222.31;1088027;54;19942;-85
2022/05/19 03:38:53;;;;;;;;;;;;;;;18.64;50.25;100213.06;1088107;46;19965;-82
2022/05/19 03:39:54;;;;;;;;;;;;;;;18.52;50.98;100210.00;1088125;54;19957;-83
2022/05/19 03:40:58;;;;;;;;;;;;;;;18.48;51.00;100214.16;1088050;54;19942;-83
2022/05/19 03:41:59;;;;;;;;;;;;;;;18.40;51.24;100212.41;1088069;54;19947;-83
2022/05/19 03:43:03;;;;;;;;;;;;;;;18.40;51.21;100206.16;1088065;54;19998;-82
2022/05/19 03:44:04;;;;;;;;;;;;;;;18.44;51.21;100209.31;1089729;46;19949;-84
2022/05/19 03:45:09;;;;;;;;;;;;;;;18.43;51.14;100211.16;1088539;54;19934;-85
2022/05/19 03:46:10;;;;;;;;;;;;;;;18.44;50.91;100207.44;1088495;54;19962;-84
2022/05/19 03:47:17;;;;;;;;;;;;;;;18.44;51.08;100218.25;1088514;54;19950;-85
2022/05/19 03:48:21;;;;;;;;;;;;;;;18.45;50.97;100209.13;1088464;54;19931;-85
2022/05/19 03:49:22;;;;;;;;;;;;;;;18.43;51.24;100205.75;1088446;54;19942;-83
2022/05/19 03:50:26;;;;;;;;;;;;;;;18.44;51.13;100214.72;1088406;54;19966;-83
2022/05/19 03:51:28;;;;;;;;;;;;;;;18.44;51.05;100207.44;1088899;39;20566;-83
2022/05/19 03:52:32;;;;;;;;;;;;;;;18.43;51.06;100215.75;1088441;54;19950;-83
2022/05/19 03:53:33;;;;;;;;;;;;;;;18.39;51.14;100213.44;1088426;54;19927;-85
2022/05/19 03:54:37;;;;;;;;;;;;;;;18.36;51.33;100218.38;1088490;54;20527;-85
2022/05/19 03:55:38;;;;;;;;;;;;;;;18.39;51.25;100215.31;1088607;54;19942;-85
2022/05/19 03:56:42;;;;;;;;;;;;;;;18.38;51.02;100219.88;1088155;54;19966;-86
2022/05/19 03:57:43;;;;;;;;;;;;;;;18.30;51.58;100216.47;1088629;54;19934;-84
2022/05/19 03:58:48;;;;;;;;;;;;;;;18.22;51.88;100217.41;1088340;54;19931;-84
2022/05/19 03:59:49;;;;;;;;;;;;;;;18.17;51.63;100212.56;1088321;54;20740;-85
2022/05/19 04:00:53;;;;;;;;;;;;;;;18.12;52.04;100216.88;1088415;54;19950;-84
2022/05/19 04:01:54;;;;;;;;;;;;;;;18.08;52.17;100219.97;1088429;54;19942;-84
2022/05/19 04:03:01;;;;;;;;;;;;;;;18.04;52.58;100215.97;1088459;54;19927;-85
2022/05/19 04:04:02;;;;;;;;;;;;;;;18.01;52.61;100216.31;1088557;54;19954;-84
2022/05/19 04:05:07;;;;;;;;;;;;;;;17.96;52.52;100212.47;1088577;54;19943;-85
2022/05/19 04:06:08;;;;;;;;;;;;;;;17.96;52.69;100213.38;1088584;54;19949;-83
2022/05/19 04:07:12;;;;;;;;;;;;;;;17.98;52.41;100210.47;1088510;54;19949;-84
2022/05/19 04:08:13;;;;;;;;;;;;;;;17.98;52.21;100205.91;1088535;54;19931;-84
2022/05/19 04:09:17;;;;;;;;;;;;;;;17.99;52.18;100201.31;1088540;54;19927;-84
2022/05/19 04:10:18;;;;;;;;;;;;;;;17.96;52.35;100205.25;1088561;54;19950;-84
2022/05/19 04:11:23;;;;;;;;;;;;;;;17.97;52.13;100206.06;1088499;54;19935;-82
2022/05/19 04:12:25;;;;;;;;;;;;;;;17.91;52.61;100203.09;1088634;54;19927;-83
2022/05/19 04:13:28;;;;;;;;;;;;;;;17.96;52.03;100207.06;1093580;39;20878;-83
2022/05/19 04:14:30;;;;;;;;;;;;;;;17.99;52.04;100204.03;1088401;54;19958;-82
2022/05/19 04:15:33;;;;;;;;;;;;;;;17.95;52.31;100203.53;1087924;54;19931;-82
2022/05/19 04:16:35;;;;;;;;;;;;;;;17.98;52.47;100213.16;1088208;54;19967;-83
2022/05/19 04:17:39;;;;;;;;;;;;;;;17.97;52.57;100208.78;1088467;54;19949;-85
2022/05/19 04:18:42;;;;;;;;;;;;;;;17.98;52.24;100213.16;1088510;54;19942;-84
2022/05/19 04:19:46;;;;;;;;;;;;;;;17.87;52.71;100206.34;1088382;54;20038;-83
2022/05/19 04:20:47;;;;;;;;;;;;;;;17.84;53.00;100210.28;1088486;54;19946;-84
2022/05/19 04:21:51;;;;;;;;;;;;;;;17.80;53.21;100210.84;1088430;54;19943;-82
2022/05/19 04:22:52;;;;;;;;;;;;;;;17.80;53.01;100206.25;1088438;54;19949;-83
2022/05/19 04:23:56;;;;;;;;;;;;;;;17.82;52.61;100212.31;1088336;54;19942;-81
2022/05/19 04:25:00;;;;;;;;;;;;;;;17.83;52.69;100216.72;1088424;54;19938;-82
2022/05/19 04:26:04;;;;;;;;;;;;;;;17.86;52.51;100216.31;1088441;54;19942;-80
2022/05/19 04:27:05;;;;;;;;;;;;;;;17.86;52.51;100221.72;1088324;54;19942;-82
2022/05/19 04:28:09;;;;;;;;;;;;;;;17.91;51.91;100219.31;1088149;54;19998;-84
2022/05/19 04:29:10;;;;;;;;;;;;;;;17.92;52.20;100221.00;1088419;54;19938;-84
2022/05/19 04:30:14;;;;;;;;;;;;;;;17.97;51.65;100233.97;1089866;46;19958;-83
2022/05/19 04:31:15;;;;;;;;;;;;;;;17.99;51.90;100221.13;1088481;54;19942;-83
2022/05/19 04:32:19;;;;;;;;;;;;;;;18.02;51.82;100222.59;1088390;54;19938;-83
2022/05/19 04:33:20;;;;;;;;;;;;;;;18.03;51.56;100222.38;1088343;54;19938;-81
2022/05/19 04:34:26;;;;;;;;;;;;;;;18.01;51.75;100218.22;1088272;54;19949;-83
2022/05/19 04:35:28;;;;;;;;;;;;;;;18.03;51.84;100213.44;1088174;54;19942;-87
2022/05/19 05:52:23;;;;;;;;;;;;;;;19.41;46.60;100244.97;1088203;54;20020;-84
2022/05/19 05:53:24;;;;;;;;;;;;;;;19.43;46.16;100241.00;1088183;54;19942;-82
2022/05/19 05:54:28;;;;;;;;;;;;;;;19.41;46.11;100240.38;1088176;54;19939;-81
2022/05/19 05:55:30;;;;;;;;;;;;;;;19.39;46.08;100247.03;1088096;54;19950;-83
2022/05/19 05:56:34;;;;;;;;;;;;;;;19.40;46.45;100241.41;1088210;54;19943;-84
2022/05/19 05:57:35;;;;;;;;;;;;;;;19.39;45.99;100247.03;1088097;54;19945;-85
2022/05/19 05:58:39;;;;;;;;;;;;;;;19.46;46.16;100247.91;1087808;54;20027;-86
2022/05/19 05:59:40;;;;;;;;;;;;;;;19.51;45.86;100233.75;1088025;54;20010;-83
2022/05/19 06:00:44;;;;;;;;;;;;;;;19.58;46.11;100243.63;1088191;54;19974;-84
2022/05/19 06:01:45;;;;;;;;;;;;;;;19.64;45.78;100245.50;1088198;54;19927;-85
2022/05/19 06:02:49;;;;;;;;;;;;;;;19.70;45.97;100243.88;1088142;54;19983;-84
2022/05/19 06:03:50;;;;;;;;;;;;;;;19.78;45.57;100240.19;1088205;54;19943;-84
2022/05/19 06:04:54;;;;;;;;;;;;;;;19.84;45.86;100241.25;1088217;54;19949;-84
2022/05/19 06:05:58;;;;;;;;;;;;;;;19.88;45.33;100239.81;1088218;54;19943;-86
2022/05/19 06:06:59;;;;;;;;;;;;;;;19.89;45.75;100246.94;1088318;54;19927;-84
2022/05/19 06:08:06;;;;;;;;;;;;;;;19.89;45.29;100255.06;1088372;54;19942;-85
2022/05/19 06:09:07;;;;;;;;;;;;;;;19.88;45.40;100246.09;1088159;54;19990;-82
2022/05/19 06:10:11;;;;;;;;;;;;;;;19.86;45.16;100247.31;1091826;39;20748;-82
2022/05/19 06:11:13;;;;;;;;;;;;;;;19.82;45.35;100243.31;1088147;54;19986;-86
2022/05/19 06:12:17;;;;;;;;;;;;;;;19.84;45.71;100239.38;1088172;54;19942;-84
2022/05/19 06:13:18;;;;;;;;;;;;;;;19.84;45.33;100247.50;1088227;54;19950;-85
2022/05/19 06:14:22;;;;;;;;;;;;;;;19.90;45.49;100241.28;1093151;39;20219;-84
2022/05/19 06:15:23;;;;;;;;;;;;;;;19.95;45.15;100243.41;1087879;54;19949;-85
2022/05/19 06:16:28;;;;;;;;;;;;;;;19.95;44.66;100246.13;1088205;54;19927;-85
2022/05/19 06:17:29;;;;;;;;;;;;;;;19.94;44.89;100244.44;1088180;54;19966;-86
2022/05/19 06:18:33;;;;;;;;;;;;;;;19.94;45.23;100249.84;1088173;54;19942;-83
2022/05/19 06:19:34;;;;;;;;;;;;;;;19.98;44.92;100245.72;1088194;54;19950;-82
2022/05/19 06:20:38;;;;;;;;;;;;;;;20.03;45.03;100243.22;1088129;54;19950;-84
2022/05/19 06:21:39;;;;;;;;;;;;;;;20.07;44.85;100243.69;1088169;54;19945;-85
2022/05/19 06:22:43;;;;;;;;;;;;;;;20.09;44.75;100245.16;1088206;54;19950;-83
2022/05/19 06:23:47;;;;;;;;;;;;;;;20.18;45.02;100244.97;1088192;54;19927;-82
2022/05/19 06:24:51;;;;;;;;;;;;;;;20.24;44.66;100238.72;1088207;54;19943;-83
2022/05/19 06:25:52;;;;;;;;;;;;;;;20.23;44.49;100242.47;1088132;54;19942;-86
2022/05/19 06:26:55;;;;;;;;;;;;;;;20.18;44.52;100244.97;1088168;54;19933;-85
2022/05/19 06:27:58;;;;;;;;;;;;;;;20.20;44.42;100237.47;1088204;54;19950;-87
2022/05/19 06:29:02;;;;;;;;;;;;;;;20.28;44.40;100240.00;1088186;54;20000;-86
2022/05/19 06:30:03;;;;;;;;;;;;;;;20.37;44.54;100233.34;1088229;54;19942;-85
2022/05/19 06:31:07;;;;;;;;;;;;;;;20.41;44.70;100236.47;1087872;54;19943;-85
2022/05/19 06:32:09;;;;;;;;;;;;;;;20.47;44.61;100232.09;1091318;39;20596;-85
2022/05/19 06:33:16;;;;;;;;;;;;;;;20.49;44.20;100236.28;1088200;54;20070;-87
2022/05/19 06:34:20;;;;;;;;;;;;;;;20.54;44.23;100227.50;1088184;54;19982;-85
2022/05/19 06:35:23;;;;;;;;;;;;;;;20.56;44.31;100237.13;1088142;54;19942;-84
2022/05/19 06:36:27;;;;;;;;;;;;;;;20.60;44.26;100232.09;1088240;54;19949;-88
2022/05/19 06:37:31;;;;;;;;;;;;;;;20.65;43.92;100229.63;1088215;54;19939;-86
2022/05/19 06:38:32;;;;;;;;;;;;;;;20.68;43.96;100239.22;1088210;54;19946;-83
2022/05/19 06:39:38;;;;;;;;;;;;;;;20.71;44.21;100239.66;1087979;54;19943;-83
2022/05/19 06:40:40;;;;;;;;;;;;;;;20.75;44.13;100240.09;1088156;54;19934;-87
2022/05/19 06:43:00;;;;;;;;;;;;;;;20.82;43.55;100248.25;1088281;54;19941;-86
2022/05/19 06:44:01;;;;;;;;;;;;;;;20.80;43.29;100242.19;1088158;54;19943;-85
2022/05/19 06:45:05;;;;;;;;;;;;;;;20.84;43.40;100238.03;1088244;54;19926;-86
2022/05/19 06:46:06;;;;;;;;;;;;;;;20.80;43.57;100239.47;1088168;54;19950;-89
2022/05/19 06:47:13;;;;;;;;;;;;;;;20.87;43.25;100243.06;1092201;39;20530;-84
2022/05/19 06:48:21;;;;;;;;;;;;;;;20.99;42.92;100240.56;1087832;54;19942;-87
2022/05/19 06:49:22;;;;;;;;;;;;;;;21.10;42.70;100236.34;1088104;54;20652;-85
2022/05/19 06:50:27;;;;;;;;;;;;;;;21.18;42.62;100233.41;1090835;39;20489;-82
2022/05/19 06:51:30;;;;;;;;;;;;;;;21.24;42.06;100232.59;1088617;54;19926;-86
2022/05/19 06:52:35;;;;;;;;;;;;;;;21.30;42.43;100234.47;1092610;39;20458;-87
2022/05/19 06:57:30;;;;;;;;;;;;;;;21.74;41.30;100231.25;1088439;54;19922;-80
2022/05/19 06:58:31;;;;;;;;;;;;;;;21.86;41.17;100228.72;1088374;54;19999;-79
2022/05/19 06:59:41;;;;;;;;;;;;;;;21.95;40.78;100222.81;1088616;54;19977;-81
2022/05/19 07:00:48;;;;;;;;;;;;;;;21.95;39.96;100228.25;1088696;54;19957;-80
2022/05/19 07:01:53;;;;;;;;;;;;;;;22.07;39.87;100224.84;1092302;46;19927;-83
2022/05/19 07:02:55;;;;;;;;;;;;;;;22.16;39.53;100229.00;1088582;54;19927;-80
2022/05/19 07:03:59;;;;;;;;;;;;;;;22.26;39.48;100218.47;1089753;46;19970;-80
2022/05/19 07:06:42;;;;;;;;;;;;;;;22.43;38.41;100223.44;1091318;46;19973;-81
2022/05/19 07:07:46;;;;;;;;;;;;;;;22.51;38.69;100217.72;1091834;46;19963;-80
2022/05/19 07:09:00;;;;;;;;;;;;;;;22.65;38.26;100214.91;1090610;46;19934;-83
2022/05/19 07:10:02;;;;;;;;;;;;;;;22.79;38.57;100221.09;1090241;46;19938;-81
2022/05/19 07:11:35;;;;;;;;;;;;;;;22.93;38.26;100217.19;1088510;54;19945;-81
2022/05/19 07:13:18;;;;;;;;;;;;;;;;;;;;;
2022/05/19 07:18:57;;;;;;;;;;;;;;;;;;;;;
2022/05/19 07:29:26;;;;;;;;;;;;;;;23.66;36.44;100218.41;1088168;54;19926;-83
2022/05/19 07:31:07;;;;;;;;;;;;;;;;;;;;;
2022/05/19 07:32:30;;;;;;;;;;;;;;;23.97;36.11;100213.88;1088474;54;19949;-82
2022/05/19 07:36:46;;;;;;;;;;;;;;;24.34;35.70;100218.44;1088479;54;19979;-81
2022/05/19 07:37:50;;;;;;;;;;;;;;;24.40;35.47;100208.47;1088173;54;20918;-83
2022/05/19 07:38:53;;;;;;;;;;;;;;;24.45;35.81;100212.19;1088551;54;19926;-82
2022/05/19 07:39:57;;;;;;;;;;;;;;;24.52;35.58;100212.06;1088607;54;19957;-81
2022/05/19 07:41:02;;;;;;;;;;;;;;;24.57;35.59;100214.09;1088453;54;19926;-81
2022/05/19 07:42:03;;;;;;;;;;;;;;;24.68;35.62;100205.13;1088407;54;19976;-81
2022/05/19 07:44:27;;;;;;;;;;;;;;;24.87;35.15;100200.41;1088685;54;19938;-81
2022/05/19 07:45:31;;;;;;;;;;;;;;;24.72;34.81;100198.13;1088537;54;20512;-81
2022/05/19 07:46:32;;;;;;;;;;;;;;;24.91;35.07;100193.38;1088411;54;19934;-81
2022/05/19 07:47:36;;;;;;;;;;;;;;;25.03;34.99;100200.78;1088361;54;20836;-81
2022/05/19 07:48:40;;;;;;;;;;;;;;;24.99;34.86;100205.88;1088552;54;19948;-83
2022/05/19 07:49:41;;;;;;;;;;;;;;;24.85;35.15;100204.44;1088503;54;19927;-82
2022/05/19 07:50:45;;;;;;;;;;;;;;;25.07;34.96;100201.97;1088370;54;19983;-82
2022/05/19 07:51:47;;;;;;;;;;;;;;;25.10;34.90;100200.66;1088408;54;19970;-82
2022/05/19 07:52:51;;;;;;;;;;;;;;;25.08;34.90;100204.47;1088422;54;19943;-83
2022/05/19 07:53:56;;;;;;;;;;;;;;;25.02;34.91;100205.41;1088239;54;19950;-81
2022/05/19 07:54:57;;;;;;;;;;;;;;;25.16;34.84;100199.69;1087981;54;19947;-83
2022/05/19 07:56:01;;;;;;;;;;;;;;;25.13;35.03;100200.19;1088373;54;19946;-82
2022/05/19 07:57:02;;;;;;;;;;;;;;;25.28;34.96;100194.22;1088411;54;19942;-82
2022/05/19 07:58:06;;;;;;;;;;;;;;;25.46;34.72;100193.28;1088513;54;19950;-84
2022/05/19 07:59:10;;;;;;;;;;;;;;;25.61;34.78;100190.06;1088405;54;19943;-80
2022/05/19 08:00:18;;;;;;;;;;;;;;;25.54;34.84;100195.66;1088353;54;19938;-82
2022/05/19 08:01:21;;;;;;;;;;;;;;;25.64;34.63;100193.13;1088480;54;19966;-83
2022/05/19 08:02:25;;;;;;;;;;;;;;;25.83;34.16;100195.69;1088156;54;19967;-81
2022/05/19 08:03:26;;;;;;;;;;;;;;;25.94;34.26;100205.78;1088210;54;19941;-79
2022/05/19 08:04:30;;;;;;;;;;;;;;;26.01;34.09;100202.91;1088386;54;20015;-83
2022/05/19 08:05:31;;;;;;;;;;;;;;;26.13;33.98;100194.69;1088319;54;19999;-82